Time,TemperatureF,DewpointF,PressureIn,WindDirection,WindDirectionDegrees,WindSpeedMPH,WindSpeedGustMPH,Humidity,HourlyPrecipIn,Conditions,Clouds,dailyrainin,SolarRadiationWatts/m^2,SoftwareType,DateUTC
2013-07-09 00:02:00,64.0,39.0,-100.00,NW,319,17.0,25.0,40,0.00,,,0.00,103.000000,,2013-07-09 04:02:00,
2013-07-09 00:34:00,61.0,39.0,-100.00,NW,319,9.0,23.0,44,0.00,,,0.00,4.000000,,2013-07-09 04:34:00,
2013-07-09 00:43:00,61.0,39.0,-100.00,NW,319,9.0,23.0,44,0.00,,,0.00,4.000000,,2013-07-09 04:43:00,
2013-07-09 00:53:00,61.0,39.0,-100.00,NW,319,9.0,23.0,44,0.00,,,0.00,4.000000,,2013-07-09 04:53:00,
2013-07-09 01:02:00,61.0,39.0,-100.00,NW,319,9.0,23.0,44,0.00,,,0.00,4.000000,,2013-07-09 05:02:00,
2013-07-09 01:34:00,59.0,39.0,-100.00,NW,324,11.0,15.0,47,0.00,,,0.00,0.000000,,2013-07-09 05:34:00,
2013-07-09 01:42:00,59.0,39.0,-100.00,NW,324,11.0,15.0,47,0.00,,,0.00,0.000000,,2013-07-09 05:42:00,
2013-07-09 01:52:00,59.0,39.0,-100.00,NW,324,11.0,15.0,47,0.00,,,0.00,0.000000,,2013-07-09 05:52:00,
2013-07-09 02:01:00,59.0,39.0,-100.00,NW,324,11.0,15.0,47,0.00,,,0.00,0.000000,,2013-07-09 06:01:00,
2013-07-09 02:34:00,57.0,39.0,-100.00,NNW,335,6.0,14.0,51,0.00,,,0.00,0.000000,,2013-07-09 06:34:00,
2013-07-09 02:43:00,57.0,39.0,-100.00,NNW,335,6.0,14.0,51,0.00,,,0.00,0.000000,,2013-07-09 06:43:00,
2013-07-09 02:53:00,57.0,39.0,-100.00,NNW,335,6.0,14.0,51,0.00,,,0.00,0.000000,,2013-07-09 06:53:00,
2013-07-09 03:02:00,57.0,39.0,-100.00,NNW,335,6.0,14.0,51,0.00,,,0.00,0.000000,,2013-07-09 07:02:00,
2013-07-09 03:34:00,57.0,40.0,-100.00,WNW,300,5.0,10.0,52,0.00,,,0.00,0.000000,,2013-07-09 07:34:00,
2013-07-09 03:43:00,57.0,40.0,-100.00,WNW,300,5.0,10.0,52,0.00,,,0.00,0.000000,,2013-07-09 07:43:00,
2013-07-09 03:53:00,57.0,40.0,-100.00,WNW,300,5.0,10.0,52,0.00,,,0.00,0.000000,,2013-07-09 07:53:00,
2013-07-09 04:01:00,57.0,40.0,-100.00,WNW,300,5.0,10.0,52,0.00,,,0.00,0.000000,,2013-07-09 08:01:00,
2013-07-09 04:33:00,56.0,40.0,-100.00,WSW,242,3.0,6.0,54,0.00,,,0.00,0.000000,,2013-07-09 08:33:00,
2013-07-09 04:43:00,56.0,40.0,-100.00,WSW,242,3.0,6.0,54,0.00,,,0.00,0.000000,,2013-07-09 08:43:00,
2013-07-09 04:52:00,56.0,40.0,-100.00,WSW,242,3.0,6.0,54,0.00,,,0.00,0.000000,,2013-07-09 08:52:00,
2013-07-09 05:02:00,56.0,40.0,-100.00,WSW,242,3.0,6.0,54,0.00,,,0.00,0.000000,,2013-07-09 09:02:00,
2013-07-09 05:34:00,54.0,39.0,-100.00,West,269,0.0,5.0,57,0.00,,,0.00,0.000000,,2013-07-09 09:34:00,
2013-07-09 05:42:00,54.0,39.0,-100.00,West,269,0.0,5.0,57,0.00,,,0.00,0.000000,,2013-07-09 09:42:00,
2013-07-09 05:53:00,54.0,39.0,-100.00,West,269,0.0,5.0,57,0.00,,,0.00,0.000000,,2013-07-09 09:53:00,
2013-07-09 06:01:00,54.0,39.0,-100.00,West,269,0.0,5.0,57,0.00,,,0.00,0.000000,,2013-07-09 10:01:00,
2013-07-09 06:34:00,52.0,39.0,-100.00,NNE,14,3.0,5.0,62,0.00,,,0.00,0.000000,,2013-07-09 10:34:00,
2013-07-09 06:42:00,52.0,39.0,-100.00,NNE,14,3.0,5.0,62,0.00,,,0.00,0.000000,,2013-07-09 10:42:00,
2013-07-09 06:52:00,52.0,39.0,-100.00,NNE,14,3.0,5.0,62,0.00,,,0.00,0.000000,,2013-07-09 10:52:00,
2013-07-09 07:01:00,52.0,39.0,-100.00,NNE,14,3.0,5.0,62,0.00,,,0.00,0.000000,,2013-07-09 11:01:00,
2013-07-09 07:34:00,51.0,38.0,-100.00,North,354,3.0,5.0,62,0.00,,,0.00,0.000000,,2013-07-09 11:34:00,
2013-07-09 07:42:00,51.0,38.0,-100.00,North,354,3.0,5.0,62,0.00,,,0.00,0.000000,,2013-07-09 11:42:00,
2013-07-09 07:53:00,51.0,38.0,-100.00,North,354,3.0,5.0,62,0.00,,,0.00,0.000000,,2013-07-09 11:53:00,
2013-07-09 08:01:00,51.0,38.0,-100.00,North,354,3.0,5.0,62,0.00,,,0.00,0.000000,,2013-07-09 12:01:00,
2013-07-09 08:33:00,51.0,38.0,-100.00,NNE,18,4.0,7.0,61,0.00,,,0.00,2.000000,,2013-07-09 12:33:00,
2013-07-09 08:43:00,51.0,38.0,-100.00,NNE,18,4.0,7.0,61,0.00,,,0.00,2.000000,,2013-07-09 12:43:00,
2013-07-09 08:52:00,51.0,38.0,-100.00,NNE,18,4.0,7.0,61,0.00,,,0.00,2.000000,,2013-07-09 12:52:00,
2013-07-09 09:01:00,51.0,38.0,-100.00,NNE,18,4.0,7.0,61,0.00,,,0.00,2.000000,,2013-07-09 13:01:00,
2013-07-09 09:43:00,53.0,38.0,-100.00,North,7,6.0,8.0,56,0.00,,,0.00,90.000000,,2013-07-09 13:43:00,
2013-07-09 09:53:00,53.0,38.0,-100.00,North,7,6.0,8.0,56,0.00,,,0.00,90.000000,,2013-07-09 13:53:00,
2013-07-09 10:01:00,53.0,38.0,-100.00,North,7,6.0,8.0,56,0.00,,,0.00,90.000000,,2013-07-09 14:01:00,
2013-07-09 10:34:00,59.0,41.0,-100.00,South,182,2.0,6.0,51,0.00,,,0.00,285.000000,,2013-07-09 14:34:00,
2013-07-09 10:43:00,59.0,41.0,-100.00,South,182,2.0,6.0,51,0.00,,,0.00,285.000000,,2013-07-09 14:43:00,
2013-07-09 10:53:00,59.0,41.0,-100.00,South,182,2.0,6.0,51,0.00,,,0.00,285.000000,,2013-07-09 14:53:00,
2013-07-09 11:01:00,59.0,41.0,-100.00,South,182,2.0,6.0,51,0.00,,,0.00,285.000000,,2013-07-09 15:01:00,
2013-07-09 11:43:00,62.0,38.0,-100.00,NNW,329,3.0,6.0,41,0.00,,,0.00,494.000000,,2013-07-09 15:43:00,
2013-07-09 11:52:00,62.0,38.0,-100.00,NNW,329,3.0,6.0,41,0.00,,,0.00,494.000000,,2013-07-09 15:52:00,
2013-07-09 12:01:00,62.0,38.0,-100.00,NNW,329,3.0,6.0,41,0.00,,,0.00,494.000000,,2013-07-09 16:01:00,
2013-07-09 12:34:00,63.0,36.0,-100.00,SW,227,4.0,8.0,37,0.00,,,0.00,301.000000,,2013-07-09 16:34:00,
2013-07-09 12:43:00,63.0,36.0,-100.00,SW,227,4.0,8.0,37,0.00,,,0.00,301.000000,,2013-07-09 16:43:00,
2013-07-09 12:53:00,63.0,36.0,-100.00,SW,227,4.0,8.0,37,0.00,,,0.00,301.000000,,2013-07-09 16:53:00,
2013-07-09 13:02:00,63.0,36.0,-100.00,SW,227,4.0,8.0,37,0.00,,,0.00,301.000000,,2013-07-09 17:02:00,
2013-07-09 13:45:00,65.0,29.0,-100.00,South,173,6.0,10.0,26,0.00,,,0.00,774.000000,,2013-07-09 17:45:00,
2013-07-09 13:53:00,65.0,29.0,-100.00,South,173,6.0,10.0,26,0.00,,,0.00,774.000000,,2013-07-09 17:53:00,
2013-07-09 14:01:00,65.0,29.0,-100.00,South,173,6.0,10.0,26,0.00,,,0.00,774.000000,,2013-07-09 18:01:00,
2013-07-09 14:32:00,69.0,27.0,-100.00,WSW,248,6.0,12.0,21,0.00,,,0.00,996.000000,,2013-07-09 18:32:00,
2013-07-09 14:43:00,69.0,27.0,-100.00,WSW,248,6.0,12.0,21,0.00,,,0.00,996.000000,,2013-07-09 18:43:00,
2013-07-09 15:01:00,69.0,27.0,-100.00,WSW,248,6.0,12.0,21,0.00,,,0.00,996.000000,,2013-07-09 19:01:00,
2013-07-09 15:33:00,71.0,33.0,-100.00,SW,218,9.0,15.0,25,0.00,,,0.00,1144.000000,,2013-07-09 19:33:00,
2013-07-09 15:42:00,71.0,33.0,-100.00,SW,218,9.0,15.0,25,0.00,,,0.00,1144.000000,,2013-07-09 19:42:00,
2013-07-09 15:52:00,71.0,33.0,-100.00,SW,218,9.0,15.0,25,0.00,,,0.00,1144.000000,,2013-07-09 19:52:00,
2013-07-09 16:01:00,71.0,33.0,-100.00,SW,218,9.0,15.0,25,0.00,,,0.00,1144.000000,,2013-07-09 20:01:00,
2013-07-09 16:32:00,74.0,32.0,-100.00,SSW,211,8.0,17.0,21,0.00,,,0.00,1189.000000,,2013-07-09 20:32:00,
2013-07-09 16:43:00,74.0,32.0,-100.00,SSW,211,8.0,17.0,21,0.00,,,0.00,1189.000000,,2013-07-09 20:43:00,
2013-07-09 16:52:00,74.0,32.0,-100.00,SSW,211,8.0,17.0,21,0.00,,,0.00,1189.000000,,2013-07-09 20:52:00,
2013-07-09 17:01:00,74.0,32.0,-100.00,SSW,211,8.0,17.0,21,0.00,,,0.00,1189.000000,,2013-07-09 21:01:00,
2013-07-09 17:32:00,77.0,30.0,-100.00,West,271,8.0,18.0,18,0.00,,,0.00,991.000000,,2013-07-09 21:32:00,
2013-07-09 17:42:00,77.0,30.0,-100.00,West,271,8.0,18.0,18,0.00,,,0.00,991.000000,,2013-07-09 21:42:00,
2013-07-09 17:52:00,77.0,30.0,-100.00,West,271,8.0,18.0,18,0.00,,,0.00,991.000000,,2013-07-09 21:52:00,
2013-07-09 18:01:00,77.0,30.0,-100.00,West,271,8.0,18.0,18,0.00,,,0.00,991.000000,,2013-07-09 22:01:00,
2013-07-09 18:33:00,78.0,31.0,-100.00,SW,215,9.0,17.0,18,0.00,,,0.00,873.000000,,2013-07-09 22:33:00,
2013-07-09 18:42:00,78.0,31.0,-100.00,SW,215,9.0,17.0,18,0.00,,,0.00,873.000000,,2013-07-09 22:42:00,
2013-07-09 18:53:00,78.0,31.0,-100.00,SW,215,9.0,17.0,18,0.00,,,0.00,873.000000,,2013-07-09 22:53:00,
2013-07-09 19:01:00,78.0,31.0,-100.00,SW,215,9.0,17.0,18,0.00,,,0.00,873.000000,,2013-07-09 23:01:00,
2013-07-09 19:33:00,79.0,29.0,-100.00,West,261,8.0,19.0,16,0.00,,,0.00,871.000000,,2013-07-09 23:33:00,
2013-07-09 19:43:00,79.0,29.0,-100.00,West,261,8.0,19.0,16,0.00,,,0.00,871.000000,,2013-07-09 23:43:00,
2013-07-09 19:53:00,79.0,29.0,-100.00,West,261,8.0,19.0,16,0.00,,,0.00,871.000000,,2013-07-09 23:53:00,
2013-07-09 20:01:00,79.0,29.0,-100.00,West,261,8.0,19.0,16,0.00,,,0.00,871.000000,,2013-07-10 00:01:00,
2013-07-09 20:33:00,78.0,32.0,-100.00,NNW,338,9.0,15.0,19,0.00,,,0.00,714.000000,,2013-07-10 00:33:00,
2013-07-09 20:43:00,78.0,32.0,-100.00,NNW,338,9.0,15.0,19,0.00,,,0.00,714.000000,,2013-07-10 00:43:00,
2013-07-09 20:52:00,78.0,32.0,-100.00,NNW,338,9.0,15.0,19,0.00,,,0.00,714.000000,,2013-07-10 00:52:00,
2013-07-09 21:01:00,78.0,32.0,-100.00,NNW,338,9.0,15.0,19,0.00,,,0.00,714.000000,,2013-07-10 01:01:00,
2013-07-09 21:33:00,76.0,32.0,-100.00,NNW,328,12.0,18.0,20,0.00,,,0.00,512.000000,,2013-07-10 01:33:00,
2013-07-09 21:43:00,76.0,32.0,-100.00,NNW,328,12.0,18.0,20,0.00,,,0.00,512.000000,,2013-07-10 01:43:00,
2013-07-09 21:53:00,76.0,32.0,-100.00,NNW,328,12.0,18.0,20,0.00,,,0.00,512.000000,,2013-07-10 01:53:00,
2013-07-09 22:01:00,76.0,32.0,-100.00,NNW,328,12.0,18.0,20,0.00,,,0.00,512.000000,,2013-07-10 02:01:00,
2013-07-09 22:34:00,74.0,29.0,-100.00,NW,318,11.0,15.0,19,0.00,,,-99.99,301.000000,,2013-07-10 02:34:00,
2013-07-09 22:43:00,74.0,29.0,-100.00,NW,318,11.0,15.0,19,0.00,,,-99.99,301.000000,,2013-07-10 02:43:00,
2013-07-09 22:53:00,74.0,29.0,-100.00,NW,318,11.0,15.0,19,0.00,,,-99.99,301.000000,,2013-07-10 02:53:00,
2013-07-09 23:01:00,74.0,29.0,-100.00,NW,318,11.0,15.0,19,0.00,,,-99.99,301.000000,,2013-07-10 03:01:00,
2013-07-09 23:32:00,70.0,30.0,-100.00,NNW,331,11.0,15.0,23,0.00,,,0.00,110.000000,,2013-07-10 03:32:00,
2013-07-09 23:43:00,70.0,30.0,-100.00,NNW,331,11.0,15.0,23,0.00,,,0.00,110.000000,,2013-07-10 03:43:00,
2013-07-09 23:52:00,70.0,30.0,-100.00,NNW,331,11.0,15.0,23,0.00,,,0.00,110.000000,,2013-07-10 03:52:00,